Terminal Aerodrome Forecast
Issued by NWS

Home | Current Version | Previous Version | Text Only | Print | Product List | Glossary Off
Versions: 1 2 3 4 5 6 7 8 9 10 11 12 13 14 15 16 17 18 19 20

000
FTUS43 KMPX 181120
TAFAXN
TAF
KAXN 181120Z 1812/1912 04007KT P6SM FEW250
     FM181500 10010KT P6SM SCT150
     FM181900 11012G20KT P6SM BKN120
     FM190000 11011KT P6SM OVC080
     FM190300 11012KT 6SM -RA OVC040
     FM190600 11015KT 4SM RA BR SCT008 OVC017=

USA.gov is the U.S. government's official web portal to all federal, state and local government web resources and services.